createdAt,value
2019-06-07T00:01:54.150Z,15.20
2019-06-07T00:06:57.890Z,14.80
2019-06-07T00:12:01.437Z,15.00
2019-06-07T00:17:05.103Z,15.40
2019-06-07T00:22:25.340Z,14.90
2019-06-07T00:27:15.143Z,15.20
2019-06-07T00:32:21.910Z,14.60
2019-06-07T00:37:25.570Z,14.90
2019-06-07T00:42:29.728Z,14.90
2019-06-07T00:47:33.396Z,15.40
2019-06-07T00:57:42.771Z,15.50
2019-06-07T01:02:47.933Z,15.00
2019-06-07T01:07:51.556Z,15.40
2019-06-07T01:12:55.157Z,14.80
2019-06-07T01:23:04.505Z,14.90
2019-06-07T01:28:08.197Z,15.10
2019-06-07T01:33:11.780Z,14.40
2019-06-07T01:38:17.227Z,14.50
2019-06-07T01:43:26.071Z,14.50
2019-06-07T01:48:46.192Z,15.10
2019-06-07T01:53:31.893Z,15.20
2019-06-07T01:58:35.555Z,14.50
2019-06-07T02:03:39.142Z,14.50
2019-06-07T02:08:43.175Z,14.70
2019-06-07T02:13:46.764Z,15.40
2019-06-07T02:19:01.806Z,15.70
2019-06-07T02:23:55.577Z,15.10
2019-06-07T02:28:59.551Z,15.30
2019-06-07T02:34:03.510Z,14.20
2019-06-07T02:39:07.835Z,14.10
2019-06-07T02:44:11.795Z,13.80
2019-06-07T02:49:15.382Z,13.90
2019-06-07T02:54:19.133Z,14.00
2019-06-07T02:59:46.985Z,13.70
2019-06-07T03:04:36.817Z,14.10
2019-06-07T03:09:36.946Z,14.10
2019-06-07T03:14:40.888Z,14.30
2019-06-07T03:19:50.175Z,13.80
2019-06-07T03:24:55.757Z,13.40
2019-06-07T03:29:59.353Z,13.70
2019-06-07T03:35:02.942Z,13.90
2019-06-07T03:40:07.060Z,13.10
2019-06-07T03:45:10.648Z,13.30
2019-06-07T03:50:14.374Z,13.70
2019-06-07T03:55:18.038Z,14.40
2019-06-07T04:00:23.549Z,14.20
2019-06-07T04:05:28.730Z,14.60
2019-06-07T04:10:52.089Z,15.30
2019-06-07T04:15:39.555Z,15.70
2019-06-07T04:20:42.999Z,15.60
2019-06-07T04:25:46.948Z,16.20
2019-06-07T04:30:50.602Z,15.50
2019-06-07T04:35:56.702Z,14.70
2019-06-07T04:41:01.005Z,15.00
2019-06-07T04:46:04.935Z,14.60
2019-06-07T04:51:10.398Z,16.00
2019-06-07T04:56:14.052Z,16.50
2019-06-07T05:01:27.154Z,15.20
2019-06-07T05:06:22.953Z,15.40
2019-06-07T05:11:26.555Z,15.80
2019-06-07T05:16:30.504Z,15.70
2019-06-07T05:21:58.701Z,15.70
2019-06-07T05:26:42.805Z,15.80
2019-06-07T05:31:46.713Z,16.00
2019-06-07T05:37:10.469Z,15.40
2019-06-07T05:41:56.562Z,15.30
2019-06-07T05:47:00.139Z,16.00
2019-06-07T05:52:03.745Z,16.20
2019-06-07T05:57:07.388Z,16.50
2019-06-07T06:02:22.215Z,16.60
2019-06-07T06:07:16.242Z,16.50
2019-06-07T06:12:34.117Z,16.80
2019-06-07T06:17:25.494Z,16.70
2019-06-07T06:22:29.086Z,16.70
2019-06-07T06:32:48.868Z,16.60
2019-06-07T06:37:48.971Z,16.90
2019-06-07T06:42:50.538Z,16.70
2019-06-07T06:47:54.577Z,16.40
2019-06-07T06:52:58.490Z,16.10
2019-06-07T06:58:02.084Z,16.20
2019-06-07T07:03:47.482Z,16.40
2019-06-07T07:08:11.228Z,16.30
2019-06-07T07:13:14.959Z,16.50
2019-06-07T07:18:18.845Z,16.70
2019-06-07T07:23:22.446Z,16.80
2019-06-07T07:28:26.174Z,17.00
2019-06-07T07:34:27.359Z,17.30
2019-06-07T07:38:35.009Z,17.00
2019-06-07T07:43:38.614Z,17.30
2019-06-07T07:48:43.510Z,17.60
2019-06-07T07:53:53.212Z,17.70
2019-06-07T07:58:56.211Z,17.90
2019-06-07T08:03:58.758Z,18.10
2019-06-07T08:09:02.537Z,18.40
2019-06-07T08:14:06.565Z,18.50
2019-06-07T08:19:12.873Z,18.60
2019-06-07T08:24:16.100Z,18.80
2019-06-07T08:29:19.904Z,19.20
2019-06-07T08:34:23.500Z,19.50
2019-06-07T08:39:27.098Z,19.50
2019-06-07T08:44:30.710Z,19.70
2019-06-07T08:49:35.162Z,19.70
2019-06-07T08:54:38.756Z,19.80
2019-06-07T08:59:42.365Z,19.40
2019-06-07T09:04:46.412Z,19.30
2019-06-07T09:09:50.530Z,20.00
2019-06-07T09:15:06.885Z,20.40
2019-06-07T09:20:07.315Z,20.70
2019-06-07T09:25:19.683Z,21.00
2019-06-07T09:30:18.580Z,21.00
2019-06-07T09:35:18.173Z,21.20
2019-06-07T09:40:27.721Z,21.20
2019-06-07T09:45:30.156Z,20.80
2019-06-07T09:50:33.819Z,20.90
2019-06-07T09:55:37.752Z,21.40
2019-06-07T10:00:42.799Z,21.90
2019-06-07T10:05:46.699Z,22.40
2019-06-07T10:10:50.424Z,22.50
2019-06-07T10:15:54.088Z,22.70
2019-06-07T10:21:14.854Z,22.60
2019-06-07T10:26:15.563Z,22.80
2019-06-07T10:31:19.349Z,23.60
2019-06-07T10:36:23.303Z,23.80
2019-06-07T10:41:26.894Z,24.20
2019-06-07T10:46:30.598Z,24.30
2019-06-07T10:51:34.259Z,24.50
2019-06-07T10:56:38.201Z,24.80
2019-06-07T11:01:41.808Z,24.90
2019-06-07T11:06:45.496Z,25.30
2019-06-07T11:11:49.089Z,25.40
2019-06-07T11:16:52.766Z,25.40
2019-06-07T11:21:56.735Z,24.60
2019-06-07T11:27:00.425Z,25.00
2019-06-07T11:32:04.070Z,25.80
2019-06-07T11:37:09.339Z,25.80
2019-06-07T11:42:14.024Z,26.30
2019-06-07T11:47:18.476Z,26.80
2019-06-07T11:52:22.201Z,26.60
2019-06-07T11:57:26.195Z,27.10
2019-06-07T12:02:29.875Z,27.20
2019-06-07T12:07:33.823Z,27.40
2019-06-07T12:12:37.642Z,27.60
2019-06-07T12:17:41.618Z,27.00
2019-06-07T12:22:45.296Z,26.20
2019-06-07T12:27:48.976Z,25.90
2019-06-07T12:32:52.588Z,25.70
2019-06-07T12:37:56.182Z,26.10
2019-06-07T12:42:59.865Z,25.80
2019-06-07T12:48:03.606Z,25.30
2019-06-07T12:53:07.250Z,25.30
2019-06-07T12:58:10.985Z,25.10
2019-06-07T13:03:14.656Z,25.20
2019-06-07T13:08:19.678Z,25.00
2019-06-07T13:13:24.583Z,24.50
2019-06-07T13:18:28.608Z,24.80
2019-06-07T13:23:32.770Z,25.00
2019-06-07T13:28:36.787Z,24.80
2019-06-07T13:33:40.706Z,24.60
2019-06-07T13:38:44.391Z,24.50
2019-06-07T13:43:51.368Z,24.40
2019-06-07T13:48:53.231Z,24.60
2019-06-07T13:53:56.838Z,25.00
2019-06-07T13:59:00.441Z,25.60
2019-06-07T14:04:04.768Z,25.80
2019-06-07T14:09:08.505Z,26.70
2019-06-07T14:14:12.174Z,27.30
2019-06-07T14:19:16.094Z,27.60
2019-06-07T14:24:21.006Z,27.60
2019-06-07T14:29:25.548Z,27.00
2019-06-07T14:34:30.493Z,27.00
2019-06-07T14:39:34.283Z,26.60
2019-06-07T14:44:38.223Z,26.10
2019-06-07T14:49:42.238Z,25.80
2019-06-07T14:54:45.827Z,25.40
2019-06-07T14:59:49.806Z,25.00
2019-06-07T15:04:54.154Z,25.00
2019-06-07T15:09:58.222Z,25.20
2019-06-07T15:15:02.155Z,25.50
2019-06-07T15:20:07.592Z,25.60
2019-06-07T15:25:11.911Z,25.30
2019-06-07T15:30:17.153Z,24.80
2019-06-07T15:35:20.767Z,24.50
2019-06-07T15:40:24.494Z,24.40
2019-06-07T15:45:29.337Z,24.30
2019-06-07T15:50:34.244Z,24.20
2019-06-07T15:55:44.918Z,23.90
2019-06-07T16:00:43.187Z,23.90
2019-06-07T16:05:47.211Z,23.80
2019-06-07T16:10:50.814Z,23.90
2019-06-07T16:15:54.764Z,23.90
2019-06-07T16:20:58.351Z,24.00
2019-06-07T16:26:01.952Z,23.80
2019-06-07T16:31:05.597Z,23.80
2019-06-07T16:36:09.260Z,23.50
2019-06-07T16:41:13.310Z,22.70
2019-06-07T16:46:17.265Z,22.20
2019-06-07T16:51:20.940Z,21.90
2019-06-07T16:56:25.110Z,21.80
2019-06-07T17:01:29.138Z,21.60
2019-06-07T17:06:32.753Z,21.20
2019-06-07T17:11:36.515Z,21.00
2019-06-07T17:16:40.861Z,20.80
2019-06-07T17:21:45.426Z,20.60
2019-06-07T17:26:49.713Z,20.30
2019-06-07T17:31:53.287Z,19.70
2019-06-07T17:36:56.940Z,19.20
2019-06-07T17:42:02.445Z,18.40
2019-06-07T17:47:05.804Z,18.00
2019-06-07T17:52:09.473Z,17.80
2019-06-07T17:57:13.143Z,17.30
2019-06-07T18:02:16.817Z,16.90
2019-06-07T18:07:21.293Z,16.60
2019-06-07T18:12:24.886Z,16.40
2019-06-07T18:17:34.674Z,16.00
2019-06-07T18:22:33.790Z,15.90
2019-06-07T18:27:37.794Z,15.70
2019-06-07T18:32:41.345Z,15.60
2019-06-07T18:37:44.941Z,15.60
2019-06-07T18:42:49.070Z,15.60
2019-06-07T18:47:53.715Z,15.50
2019-06-07T18:52:58.958Z,15.50
2019-06-07T18:58:03.092Z,15.50
2019-06-07T19:03:06.827Z,15.40
2019-06-07T19:08:10.421Z,15.30
2019-06-07T19:13:14.085Z,15.30
2019-06-07T19:18:17.842Z,15.40
2019-06-07T19:23:21.463Z,15.40
2019-06-07T19:28:25.463Z,15.40
2019-06-07T19:33:29.454Z,15.40
2019-06-07T19:38:33.138Z,15.20
2019-06-07T19:43:36.724Z,14.70
2019-06-07T19:48:40.364Z,14.30
2019-06-07T19:53:44.281Z,14.00
2019-06-07T19:58:47.945Z,13.80
2019-06-07T20:03:51.606Z,13.80
2019-06-07T20:08:56.522Z,13.70
2019-06-07T20:14:00.766Z,13.70
2019-06-07T20:19:05.679Z,13.60
2019-06-07T20:24:24.920Z,13.80
2019-06-07T20:29:25.812Z,13.60
2019-06-07T20:34:20.735Z,13.70
2019-06-07T20:39:24.325Z,13.70
2019-06-07T20:44:28.016Z,13.60
2019-06-07T20:49:31.633Z,13.70
2019-06-07T20:54:35.593Z,13.60
2019-06-07T20:59:39.268Z,13.70
2019-06-07T21:04:43.205Z,13.80
2019-06-07T21:09:46.951Z,13.80
2019-06-07T21:14:52.592Z,13.80
2019-06-07T21:19:56.526Z,13.80
2019-06-07T21:25:00.710Z,13.80
2019-06-07T21:30:07.762Z,13.90
2019-06-07T21:35:12.358Z,14.10
2019-06-07T21:40:16.648Z,14.20
2019-06-07T21:45:20.370Z,14.20
2019-06-07T21:50:24.411Z,14.20
2019-06-07T21:55:28.154Z,14.30
2019-06-07T22:00:50.901Z,14.30
2019-06-07T22:05:54.832Z,14.50
2019-06-07T22:10:58.590Z,14.40
2019-06-07T22:16:03.811Z,14.60
2019-06-07T22:21:09.175Z,14.60
2019-06-07T22:26:13.342Z,14.50
2019-06-07T22:31:17.059Z,14.50
2019-06-07T22:36:20.951Z,14.60
2019-06-07T22:41:25.046Z,14.70
2019-06-07T22:46:37.485Z,14.80
2019-06-07T22:51:34.990Z,15.00
2019-06-07T22:56:40.558Z,14.90
2019-06-07T23:01:44.333Z,15.00
2019-06-07T23:06:47.934Z,14.90
2019-06-07T23:11:52.002Z,14.90
2019-06-07T23:16:56.218Z,14.90
2019-06-07T23:21:59.958Z,14.90
2019-06-07T23:27:03.553Z,14.80
2019-06-07T23:32:07.161Z,15.00
2019-06-07T23:37:10.986Z,15.20
2019-06-07T23:42:15.530Z,15.20
2019-06-07T23:47:20.493Z,15.30
2019-06-07T23:52:24.462Z,15.20
2019-06-07T23:57:28.047Z,15.30
